Terminal Aerodrome Forecast
Issued by NWS

Current Version | Previous Version | Text Only | Print | Product List | Glossary On
Versions: 1 2 3 4 5 6 7 8 9 10 11 12 13 14 15
000
FTUS42 TJSJ 011100
TAFJBQ
TAF
TJBQ 011120Z 0112/0212 11008KT P6SM SCT030
     FM011400 07016G20KT P6SM FEW025
     FM011700 09014G18KT P6SM VCTS SCT025CB
     FM012300 09008KT P6SM SCT025
      AMD NOT SKED 0202/0211=

USA.gov is the U.S. government's official web portal to all federal, state and local government web resources and services.